createdAt,value
2017-08-30T00:00:55.263Z,87.60
2017-08-30T00:03:24.551Z,87.50
2017-08-30T00:05:53.950Z,87.50
2017-08-30T00:08:23.442Z,87.80
2017-08-30T00:10:52.775Z,87.90
2017-08-30T00:13:23.320Z,88.10
2017-08-30T00:15:52.602Z,88.20
2017-08-30T00:18:21.853Z,88.00
2017-08-30T00:20:51.130Z,88.20
2017-08-30T00:23:20.431Z,88.10
2017-08-30T00:26:07.237Z,88.20
2017-08-30T00:31:43.229Z,88.60
2017-08-30T00:34:12.510Z,88.60
2017-08-30T00:36:41.761Z,88.70
2017-08-30T00:39:11.109Z,88.90
2017-08-30T00:41:40.320Z,89.10
2017-08-30T00:44:09.591Z,89.10
2017-08-30T00:46:39.670Z,89.00
2017-08-30T00:49:09.015Z,88.90
2017-08-30T00:51:38.315Z,89.00
2017-08-30T00:54:07.617Z,89.20
2017-08-30T00:56:36.918Z,89.20
2017-08-30T00:59:06.240Z,89.30
2017-08-30T01:01:35.485Z,89.10
2017-08-30T01:04:05.502Z,89.20
2017-08-30T01:06:34.761Z,89.10
2017-08-30T01:09:04.014Z,89.10
2017-08-30T01:11:33.312Z,89.10
2017-08-30T01:14:02.573Z,89.00
2017-08-30T01:16:32.001Z,89.10
2017-08-30T01:19:01.280Z,89.00
2017-08-30T01:21:30.535Z,89.10
2017-08-30T01:23:59.799Z,89.30
2017-08-30T01:26:29.753Z,89.30
2017-08-30T01:28:59.026Z,89.20
2017-08-30T01:31:28.297Z,89.20
2017-08-30T01:33:57.661Z,89.30
2017-08-30T01:36:27.546Z,89.40
2017-08-30T01:38:56.971Z,89.60
2017-08-30T01:41:26.216Z,89.10
2017-08-30T01:43:55.726Z,89.40
2017-08-30T01:46:25.020Z,89.00
2017-08-30T01:48:54.470Z,89.60
2017-08-30T01:51:23.753Z,89.70
2017-08-30T01:53:53.078Z,89.70
2017-08-30T01:56:22.358Z,89.80
2017-08-30T01:58:51.708Z,89.70
2017-08-30T02:01:21.037Z,89.40
2017-08-30T02:03:50.290Z,89.80
2017-08-30T02:06:19.563Z,90.00
2017-08-30T02:08:48.924Z,89.90
2017-08-30T02:11:19.250Z,89.80
2017-08-30T02:13:48.750Z,89.70
2017-08-30T02:16:18.068Z,89.90
2017-08-30T02:18:47.623Z,90.10
2017-08-30T02:21:17.054Z,90.00
2017-08-30T02:23:46.320Z,89.90
2017-08-30T02:26:15.656Z,90.00
2017-08-30T02:28:44.915Z,89.80
2017-08-30T02:31:14.214Z,90.30
2017-08-30T02:33:43.468Z,90.00
2017-08-30T02:36:12.718Z,90.00
2017-08-30T02:38:42.163Z,90.00
2017-08-30T02:41:11.470Z,90.10
2017-08-30T02:43:40.776Z,90.00
2017-08-30T02:46:10.023Z,90.00
2017-08-30T02:48:39.306Z,90.00
2017-08-30T02:51:08.559Z,90.00
2017-08-30T02:53:38.003Z,90.00
2017-08-30T02:56:07.256Z,90.00
2017-08-30T02:58:36.506Z,89.90
2017-08-30T03:01:05.790Z,90.10
2017-08-30T03:03:35.066Z,90.10
2017-08-30T03:06:04.334Z,90.00
2017-08-30T03:08:33.593Z,90.20
2017-08-30T03:11:02.858Z,90.10
2017-08-30T03:13:32.178Z,90.00
2017-08-30T03:16:01.495Z,90.00
2017-08-30T03:18:30.773Z,90.00
2017-08-30T03:21:00.115Z,89.80
2017-08-30T03:23:29.410Z,90.00
2017-08-30T03:25:58.708Z,90.00
2017-08-30T03:28:27.998Z,90.30
2017-08-30T03:30:57.259Z,90.30
2017-08-30T03:33:26.598Z,90.20
2017-08-30T03:35:55.946Z,90.20
2017-08-30T03:38:25.212Z,90.40
2017-08-30T03:40:54.513Z,90.30
2017-08-30T03:43:23.768Z,90.30
2017-08-30T03:45:53.046Z,90.30
2017-08-30T03:48:22.289Z,90.30
2017-08-30T03:50:51.722Z,90.30
2017-08-30T03:53:21.038Z,90.20
2017-08-30T03:55:50.294Z,90.10
2017-08-30T03:58:19.850Z,90.00
2017-08-30T04:00:49.110Z,90.10
2017-08-30T04:03:18.380Z,90.10
2017-08-30T04:05:47.728Z,90.10
2017-08-30T04:08:16.969Z,90.20
2017-08-30T04:10:46.251Z,90.10
2017-08-30T04:13:15.513Z,89.90
2017-08-30T04:15:44.787Z,90.00
2017-08-30T04:18:14.055Z,90.10
2017-08-30T04:20:43.370Z,90.10
2017-08-30T04:23:12.658Z,90.10
2017-08-30T04:25:41.942Z,90.00
2017-08-30T04:28:11.228Z,90.10
2017-08-30T04:30:40.485Z,90.10
2017-08-30T04:33:09.860Z,90.00
2017-08-30T04:35:39.272Z,90.00
2017-08-30T04:38:08.510Z,89.90
2017-08-30T04:40:37.788Z,90.00
2017-08-30T04:43:07.051Z,90.00
2017-08-30T04:45:36.395Z,90.00
2017-08-30T04:48:05.670Z,90.00
2017-08-30T04:50:35.154Z,90.00
2017-08-30T04:53:04.418Z,90.00
2017-08-30T04:55:33.686Z,90.00
2017-08-30T04:58:03.075Z,89.80
2017-08-30T05:00:32.320Z,89.40
2017-08-30T05:03:01.602Z,89.10
2017-08-30T05:05:30.999Z,88.80
2017-08-30T05:08:00.238Z,88.50
2017-08-30T05:10:29.530Z,88.20
2017-08-30T05:12:58.759Z,87.60
2017-08-30T05:15:28.030Z,87.40
2017-08-30T05:17:57.302Z,87.10
2017-08-30T05:20:26.592Z,86.90
2017-08-30T05:22:56.079Z,86.60
2017-08-30T05:25:25.319Z,86.50
2017-08-30T05:27:54.595Z,86.00
2017-08-30T05:30:23.883Z,85.80
2017-08-30T05:32:53.305Z,85.40
2017-08-30T05:35:22.574Z,85.60
2017-08-30T05:37:51.822Z,85.40
2017-08-30T05:40:21.082Z,85.40
2017-08-30T05:42:51.086Z,84.10
2017-08-30T05:45:20.328Z,83.80
2017-08-30T05:47:49.678Z,83.40
2017-08-30T05:50:18.924Z,83.00
2017-08-30T05:52:48.194Z,82.40
2017-08-30T05:55:17.442Z,82.10
2017-08-30T05:57:46.702Z,81.10
2017-08-30T06:00:16.034Z,80.00
2017-08-30T06:02:46.061Z,79.80
2017-08-30T06:05:15.322Z,79.10
2017-08-30T06:07:44.605Z,78.30
2017-08-30T06:10:13.869Z,78.10
2017-08-30T06:12:43.151Z,77.30
2017-08-30T06:15:12.598Z,75.40
2017-08-30T06:17:41.940Z,73.00
2017-08-30T06:20:11.206Z,69.20
2017-08-30T06:22:40.580Z,65.70
2017-08-30T06:25:09.837Z,63.10
2017-08-30T06:27:39.130Z,60.60
2017-08-30T06:30:08.411Z,60.10
2017-08-30T06:32:37.661Z,58.20
2017-08-30T06:35:06.898Z,56.50
2017-08-30T06:37:36.186Z,55.00
2017-08-30T06:40:05.441Z,54.20
2017-08-30T06:42:34.668Z,53.60
2017-08-30T06:45:04.053Z,52.80
2017-08-30T06:47:33.559Z,53.10
2017-08-30T06:50:02.850Z,51.80
2017-08-30T06:52:32.113Z,51.10
2017-08-30T06:55:01.411Z,51.80
2017-08-30T06:57:30.765Z,50.00
2017-08-30T07:00:00.020Z,50.50
2017-08-30T07:02:29.277Z,49.60
2017-08-30T07:04:58.538Z,48.40
2017-08-30T07:07:27.834Z,47.50
2017-08-30T07:09:57.179Z,46.20
2017-08-30T07:12:26.769Z,44.80
2017-08-30T07:14:56.034Z,44.70
2017-08-30T07:17:25.568Z,44.70
2017-08-30T07:19:54.897Z,45.20
2017-08-30T07:22:24.202Z,47.30
2017-08-30T07:24:53.872Z,49.10
2017-08-30T07:27:23.120Z,49.20
2017-08-30T07:29:52.379Z,49.50
2017-08-30T07:32:22.426Z,49.20
2017-08-30T07:34:51.707Z,49.30
2017-08-30T07:37:20.970Z,44.80
2017-08-30T07:39:50.812Z,47.10
2017-08-30T07:42:20.094Z,40.10
2017-08-30T07:44:49.453Z,36.80
2017-08-30T07:47:18.738Z,36.30
2017-08-30T07:49:47.986Z,35.40
2017-08-30T07:52:17.430Z,34.90
2017-08-30T07:54:46.691Z,34.40
2017-08-30T07:57:15.955Z,34.80
2017-08-30T07:59:45.413Z,35.20
2017-08-30T08:02:14.730Z,33.10
2017-08-30T08:04:44.048Z,30.20
2017-08-30T08:07:13.299Z,30.70
2017-08-30T08:09:42.991Z,29.00
2017-08-30T08:12:12.252Z,29.40
2017-08-30T08:14:42.219Z,29.20
2017-08-30T08:17:11.503Z,30.60
2017-08-30T08:19:41.042Z,28.80
2017-08-30T08:22:10.531Z,28.80
2017-08-30T08:24:39.826Z,31.30
2017-08-30T08:27:09.105Z,29.80
2017-08-30T08:29:38.741Z,28.30
2017-08-30T08:32:07.979Z,28.00
2017-08-30T08:34:37.290Z,27.80
2017-08-30T08:37:06.548Z,27.60
2017-08-30T08:39:35.908Z,28.50
2017-08-30T08:42:05.159Z,29.70
2017-08-30T08:44:34.421Z,29.70
2017-08-30T08:47:03.851Z,31.10
2017-08-30T08:49:33.432Z,32.00
2017-08-30T08:52:02.751Z,29.30
2017-08-30T08:54:32.846Z,27.70
2017-08-30T08:57:02.172Z,27.70
2017-08-30T08:59:31.436Z,27.60
2017-08-30T09:02:00.780Z,27.60
2017-08-30T09:04:30.023Z,27.20
2017-08-30T09:06:59.786Z,27.50
2017-08-30T09:09:29.042Z,27.50
2017-08-30T09:11:58.385Z,29.20
2017-08-30T09:14:27.721Z,27.90
2017-08-30T09:16:57.620Z,27.80
2017-08-30T09:19:26.898Z,29.60
2017-08-30T09:21:56.742Z,30.10
2017-08-30T09:24:26.135Z,31.30
2017-08-30T09:26:55.401Z,33.20
2017-08-30T09:29:24.641Z,33.10
2017-08-30T09:31:54.017Z,33.90
2017-08-30T09:34:23.530Z,34.80
2017-08-30T09:36:52.794Z,34.40
2017-08-30T09:39:22.047Z,33.80
2017-08-30T09:41:51.310Z,34.60
2017-08-30T09:44:20.560Z,35.10
2017-08-30T09:46:50.042Z,36.90
2017-08-30T09:49:19.334Z,34.00
2017-08-30T09:51:48.635Z,32.80
2017-08-30T09:54:18.104Z,32.60
2017-08-30T09:56:47.543Z,32.60
2017-08-30T09:59:16.964Z,33.00
2017-08-30T10:01:46.275Z,33.60
2017-08-30T10:04:16.315Z,33.70
2017-08-30T10:06:45.576Z,33.60
2017-08-30T10:09:14.894Z,33.00
2017-08-30T10:11:44.286Z,32.40
2017-08-30T10:14:13.566Z,31.20
2017-08-30T10:16:42.816Z,30.70
2017-08-30T10:19:12.086Z,30.60
2017-08-30T10:21:41.345Z,29.80
2017-08-30T10:24:11.136Z,29.80
2017-08-30T10:26:40.429Z,30.00
2017-08-30T10:29:09.738Z,31.50
2017-08-30T10:31:39.171Z,32.80
2017-08-30T10:34:08.513Z,28.50
2017-08-30T10:36:37.883Z,28.40
2017-08-30T10:39:07.765Z,29.00
2017-08-30T10:41:37.033Z,29.80
2017-08-30T10:44:06.290Z,30.40
2017-08-30T10:46:35.966Z,30.90
2017-08-30T10:49:05.430Z,31.70
2017-08-30T10:51:34.697Z,32.50
2017-08-30T10:54:03.974Z,33.10
2017-08-30T10:56:33.934Z,33.00
2017-08-30T10:59:03.234Z,32.70
2017-08-30T11:01:32.550Z,32.40
2017-08-30T11:04:01.949Z,31.80
2017-08-30T11:06:31.277Z,32.50
2017-08-30T11:09:00.552Z,34.40
2017-08-30T11:11:29.807Z,30.60
2017-08-30T11:13:59.067Z,30.40
2017-08-30T11:16:28.334Z,30.70
2017-08-30T11:18:57.601Z,31.40
2017-08-30T11:21:26.838Z,31.50
2017-08-30T11:23:56.113Z,32.20
2017-08-30T11:26:25.361Z,32.50
2017-08-30T11:28:54.711Z,33.90
2017-08-30T11:31:23.993Z,35.30
2017-08-30T11:33:53.279Z,35.50
2017-08-30T11:36:22.646Z,37.00
2017-08-30T11:38:51.901Z,35.50
2017-08-30T11:41:21.165Z,36.10
2017-08-30T11:43:50.701Z,35.60
2017-08-30T11:46:19.985Z,35.60
2017-08-30T11:48:49.278Z,36.30
2017-08-30T11:51:18.575Z,38.20
2017-08-30T11:53:47.826Z,40.80
2017-08-30T11:56:17.101Z,42.10
2017-08-30T11:58:46.498Z,43.40
2017-08-30T12:01:15.769Z,44.50
2017-08-30T12:03:45.042Z,44.90
2017-08-30T12:06:14.315Z,45.50
2017-08-30T12:08:43.582Z,46.10
2017-08-30T12:11:12.904Z,46.40
2017-08-30T12:13:42.159Z,46.10
2017-08-30T12:16:11.402Z,46.80
2017-08-30T12:18:40.711Z,45.10
2017-08-30T12:21:10.098Z,46.40
2017-08-30T12:23:40.024Z,45.90
2017-08-30T12:26:09.290Z,45.80
2017-08-30T12:28:38.563Z,46.90
2017-08-30T12:31:07.856Z,46.60
2017-08-30T12:33:37.127Z,47.00
2017-08-30T12:36:06.430Z,47.90
2017-08-30T12:41:38.614Z,47.20
2017-08-30T12:44:08.122Z,47.00
2017-08-30T12:46:37.447Z,46.80
2017-08-30T12:49:06.717Z,47.80
2017-08-30T12:51:35.992Z,47.50
2017-08-30T12:54:05.499Z,48.00
2017-08-30T12:56:34.767Z,48.10
2017-08-30T12:59:04.020Z,47.80
2017-08-30T13:01:33.271Z,47.90
2017-08-30T13:04:02.534Z,47.90
2017-08-30T13:06:31.807Z,47.80
2017-08-30T13:09:01.176Z,48.20
2017-08-30T13:11:30.426Z,48.60
2017-08-30T13:13:59.680Z,49.10
2017-08-30T13:16:29.282Z,50.00
2017-08-30T13:18:58.533Z,49.80
2017-08-30T13:21:27.800Z,49.50
2017-08-30T13:23:57.166Z,49.30
2017-08-30T13:26:26.474Z,49.20
2017-08-30T13:28:55.747Z,48.70
2017-08-30T13:31:25.084Z,48.00
2017-08-30T13:33:55.096Z,46.90
2017-08-30T13:36:24.383Z,46.90
2017-08-30T13:38:54.245Z,47.00
2017-08-30T13:41:23.706Z,47.30
2017-08-30T13:43:52.962Z,48.10
2017-08-30T13:46:22.227Z,48.00
2017-08-30T13:48:51.614Z,48.80
2017-08-30T13:51:20.861Z,48.90
2017-08-30T13:53:50.127Z,49.20
2017-08-30T13:56:20.207Z,49.30
2017-08-30T13:58:49.457Z,49.20
2017-08-30T14:01:18.738Z,49.10
2017-08-30T14:03:48.204Z,49.50
2017-08-30T14:06:17.466Z,47.30
2017-08-30T14:08:46.722Z,47.60
2017-08-30T14:11:15.994Z,47.60
2017-08-30T14:13:45.242Z,46.80
2017-08-30T14:16:14.598Z,47.20
2017-08-30T14:18:43.870Z,48.10
2017-08-30T14:21:13.106Z,47.50
2017-08-30T14:23:42.709Z,47.70
2017-08-30T14:26:12.029Z,46.90
2017-08-30T14:28:41.295Z,46.90
2017-08-30T14:31:10.538Z,47.00
2017-08-30T14:33:39.777Z,47.30
2017-08-30T14:36:09.183Z,48.20
2017-08-30T14:38:38.489Z,48.80
2017-08-30T14:41:07.738Z,48.30
2017-08-30T14:43:37.001Z,48.60
2017-08-30T14:46:06.298Z,48.20
2017-08-30T14:48:35.580Z,49.00
2017-08-30T14:51:04.998Z,49.40
2017-08-30T14:53:34.279Z,50.50
2017-08-30T14:56:03.591Z,50.60
2017-08-30T14:58:32.865Z,50.30
2017-08-30T15:01:02.109Z,49.80
2017-08-30T15:03:31.373Z,49.30
2017-08-30T15:06:00.678Z,48.60
2017-08-30T15:08:30.172Z,48.70
2017-08-30T15:10:59.674Z,49.00
2017-08-30T15:13:28.918Z,48.30
2017-08-30T15:15:58.230Z,48.10
2017-08-30T15:18:28.109Z,48.80
2017-08-30T15:20:57.513Z,49.50
2017-08-30T15:23:26.763Z,50.30
2017-08-30T15:25:56.140Z,50.60
2017-08-30T15:28:25.415Z,50.60
2017-08-30T15:30:54.673Z,50.40
2017-08-30T15:33:24.120Z,51.10
2017-08-30T15:35:53.389Z,51.10
2017-08-30T15:38:22.632Z,50.90
2017-08-30T15:40:52.871Z,51.50
2017-08-30T15:43:22.152Z,51.40
2017-08-30T15:45:51.422Z,51.80
2017-08-30T15:48:20.839Z,51.30
2017-08-30T15:50:50.217Z,51.70
2017-08-30T15:53:20.110Z,52.20
2017-08-30T15:55:49.404Z,51.90
2017-08-30T15:58:18.708Z,52.10
2017-08-30T16:00:47.982Z,52.60
2017-08-30T16:03:17.269Z,52.10
2017-08-30T16:05:46.508Z,52.20
2017-08-30T16:08:16.640Z,52.40
2017-08-30T16:10:45.930Z,52.30
2017-08-30T16:13:15.988Z,52.40
2017-08-30T16:15:45.261Z,52.40
2017-08-30T16:18:15.278Z,52.00
2017-08-30T16:20:44.694Z,51.90
2017-08-30T16:23:13.982Z,52.40
2017-08-30T16:25:44.969Z,52.40
2017-08-30T16:28:14.337Z,52.70
2017-08-30T16:30:43.668Z,53.00
2017-08-30T16:33:12.943Z,52.40
2017-08-30T16:35:42.258Z,52.30
2017-08-30T16:38:11.771Z,52.30
2017-08-30T16:40:40.979Z,52.70
2017-08-30T16:43:10.297Z,52.60
2017-08-30T16:45:39.545Z,52.50
2017-08-30T16:48:09.089Z,52.80
2017-08-30T16:50:38.626Z,52.70
2017-08-30T16:53:07.906Z,53.00
2017-08-30T16:55:37.243Z,53.90
2017-08-30T16:58:07.395Z,52.90
2017-08-30T17:00:36.707Z,53.20
2017-08-30T17:03:06.008Z,52.90
2017-08-30T17:05:35.409Z,53.40
2017-08-30T17:08:04.658Z,53.40
2017-08-30T17:10:33.913Z,53.30
2017-08-30T17:13:03.192Z,53.60
2017-08-30T17:15:32.563Z,54.20
2017-08-30T17:18:01.850Z,54.20
2017-08-30T17:20:31.108Z,54.30
2017-08-30T17:23:00.345Z,54.00
2017-08-30T17:25:29.716Z,54.40
2017-08-30T17:27:59.163Z,54.70
2017-08-30T17:30:28.425Z,55.10
2017-08-30T17:32:57.698Z,54.90
2017-08-30T17:35:26.957Z,54.80
2017-08-30T17:37:56.219Z,55.10
2017-08-30T17:40:25.497Z,54.90
2017-08-30T17:42:54.779Z,55.10
2017-08-30T17:45:24.065Z,55.20
2017-08-30T17:47:53.295Z,55.40
2017-08-30T17:50:22.587Z,55.30
2017-08-30T17:52:51.866Z,55.70
2017-08-30T17:55:21.114Z,55.40
2017-08-30T17:57:50.432Z,56.10
2017-08-30T18:00:19.694Z,55.60
2017-08-30T18:02:49.169Z,55.90
2017-08-30T18:05:18.440Z,56.10
2017-08-30T18:07:47.734Z,57.10
2017-08-30T18:10:17.042Z,56.40
2017-08-30T18:12:46.332Z,58.70
2017-08-30T18:15:15.597Z,58.10
2017-08-30T18:17:44.886Z,60.60
2017-08-30T18:20:14.184Z,61.30
2017-08-30T18:22:43.424Z,62.30
2017-08-30T18:25:12.718Z,63.10
2017-08-30T18:27:42.283Z,64.30
2017-08-30T18:30:11.845Z,64.90
2017-08-30T18:32:41.086Z,64.90
2017-08-30T18:35:10.344Z,65.90
2017-08-30T18:37:39.622Z,65.30
2017-08-30T18:40:08.869Z,66.40
2017-08-30T18:42:38.251Z,66.70
2017-08-30T18:45:07.575Z,67.20
2017-08-30T18:47:36.825Z,68.20
2017-08-30T18:50:06.113Z,68.70
2017-08-30T18:52:35.567Z,69.00
2017-08-30T18:55:04.826Z,69.50
2017-08-30T18:57:34.139Z,70.40
2017-08-30T19:00:03.381Z,71.30
2017-08-30T19:02:32.694Z,71.90
2017-08-30T19:05:01.954Z,72.00
2017-08-30T19:07:31.381Z,71.70
2017-08-30T19:10:01.411Z,73.10
2017-08-30T19:12:30.809Z,73.00
2017-08-30T19:15:00.171Z,73.40
2017-08-30T19:17:29.440Z,72.90
2017-08-30T19:19:58.778Z,73.00
2017-08-30T19:22:28.043Z,72.40
2017-08-30T19:24:57.408Z,72.60
2017-08-30T19:27:26.814Z,73.00
2017-08-30T19:29:56.070Z,73.90
2017-08-30T19:32:26.277Z,73.30
2017-08-30T19:34:55.597Z,73.80
2017-08-30T19:37:24.848Z,74.10
2017-08-30T19:39:54.125Z,73.70
2017-08-30T19:42:23.401Z,74.30
2017-08-30T19:44:52.646Z,74.10
2017-08-30T19:47:22.712Z,75.00
2017-08-30T19:49:51.976Z,75.00
2017-08-30T19:52:22.403Z,75.00
2017-08-30T19:54:53.462Z,75.70
2017-08-30T19:57:24.220Z,75.80
2017-08-30T19:59:53.837Z,75.80
2017-08-30T20:02:23.126Z,76.00
2017-08-30T20:04:52.446Z,77.60
2017-08-30T20:07:21.710Z,77.90
2017-08-30T20:09:51.008Z,78.60
2017-08-30T20:12:20.275Z,80.10
2017-08-30T20:14:49.808Z,80.70
2017-08-30T20:17:19.037Z,80.90
2017-08-30T20:19:48.299Z,82.10
2017-08-30T20:22:18.470Z,83.00
2017-08-30T20:24:47.763Z,83.00
2017-08-30T20:27:17.058Z,82.60
2017-08-30T20:29:49.861Z,82.00
2017-08-30T20:32:19.094Z,83.20
2017-08-30T20:34:50.401Z,83.30
2017-08-30T20:37:28.933Z,83.10
2017-08-30T20:39:58.897Z,81.30
2017-08-30T20:42:28.219Z,78.40
2017-08-30T20:44:57.481Z,76.50
2017-08-30T20:47:27.251Z,75.60
2017-08-30T20:49:57.554Z,74.10
2017-08-30T20:52:27.928Z,73.90
2017-08-30T20:54:57.206Z,73.90
2017-08-30T20:57:27.606Z,74.80
2017-08-30T20:59:57.762Z,75.30
2017-08-30T21:02:27.060Z,74.80
2017-08-30T21:04:56.342Z,75.10
2017-08-30T21:07:25.634Z,75.10
2017-08-30T21:09:54.987Z,76.70
2017-08-30T21:12:24.246Z,78.10
2017-08-30T21:14:53.525Z,76.80
2017-08-30T21:17:22.810Z,76.70
2017-08-30T21:19:52.301Z,76.50
2017-08-30T21:22:21.616Z,77.50
2017-08-30T21:24:50.952Z,78.70
2017-08-30T21:27:20.202Z,79.30
2017-08-30T21:29:49.510Z,78.20
2017-08-30T21:32:18.815Z,76.70
2017-08-30T21:34:48.361Z,79.10
2017-08-30T21:37:17.666Z,77.10
2017-08-30T21:39:46.939Z,77.90
2017-08-30T21:42:16.220Z,79.70
2017-08-30T21:44:45.485Z,81.10
2017-08-30T21:47:14.749Z,82.10
2017-08-30T21:49:44.031Z,83.00
2017-08-30T21:52:13.273Z,83.60
2017-08-30T21:54:42.540Z,83.20
2017-08-30T21:57:12.812Z,84.00
2017-08-30T21:59:42.173Z,84.30
2017-08-30T22:02:11.674Z,84.00
2017-08-30T22:04:41.041Z,84.70
2017-08-30T22:07:10.305Z,84.60
2017-08-30T22:09:39.562Z,83.40
2017-08-30T22:12:08.834Z,82.90
2017-08-30T22:14:38.098Z,83.90
2017-08-30T22:17:07.359Z,81.80
2017-08-30T22:19:36.788Z,82.40
2017-08-30T22:22:06.967Z,81.70
2017-08-30T22:24:36.214Z,81.60
2017-08-30T22:27:05.507Z,79.70
2017-08-30T22:29:34.749Z,79.70
2017-08-30T22:32:03.986Z,79.30
2017-08-30T22:34:33.250Z,79.60
2017-08-30T22:37:02.515Z,79.30
2017-08-30T22:39:32.737Z,79.00
2017-08-30T22:42:02.014Z,79.00
2017-08-30T22:44:31.272Z,79.60
2017-08-30T22:47:00.537Z,78.90
2017-08-30T22:49:29.785Z,79.10
2017-08-30T22:51:59.090Z,79.10
2017-08-30T22:54:28.329Z,79.20
2017-08-30T22:56:57.603Z,80.10
2017-08-30T22:59:26.883Z,80.20
2017-08-30T23:01:56.172Z,80.20
2017-08-30T23:04:25.495Z,80.10
2017-08-30T23:06:54.754Z,80.00
2017-08-30T23:09:24.478Z,79.80
2017-08-30T23:11:53.861Z,80.00
2017-08-30T23:14:23.286Z,79.50
2017-08-30T23:16:52.555Z,79.20
2017-08-30T23:19:21.805Z,79.20
2017-08-30T23:21:51.092Z,79.40
2017-08-30T23:24:20.360Z,79.30
2017-08-30T23:26:49.605Z,79.70
2017-08-30T23:29:19.571Z,79.40
2017-08-30T23:31:48.890Z,79.60
2017-08-30T23:34:18.179Z,79.90
2017-08-30T23:36:47.672Z,79.60
2017-08-30T23:39:17.068Z,79.50
2017-08-30T23:41:46.326Z,79.60
2017-08-30T23:44:15.654Z,79.80
2017-08-30T23:46:45.075Z,79.90
2017-08-30T23:49:14.399Z,80.00
2017-08-30T23:51:43.663Z,80.40
2017-08-30T23:54:12.970Z,79.80
2017-08-30T23:56:42.274Z,79.80
2017-08-30T23:59:11.514Z,80.90
